sensor_id;sensor_type;location;lat;lon;timestamp;P1;durP1;ratioP1;P2;durP2;ratioP2
37677;SDS011;23517;50.390;8.616;2024-01-27T00:01:08;10.45;;;2.10;;
37677;SDS011;23517;50.390;8.616;2024-01-27T00:03:35;9.15;;;1.73;;
37677;SDS011;23517;50.390;8.616;2024-01-27T00:06:02;12.27;;;2.03;;
37677;SDS011;23517;50.390;8.616;2024-01-27T00:08:29;12.13;;;2.05;;
37677;SDS011;23517;50.390;8.616;2024-01-27T00:10:55;8.57;;;1.73;;
37677;SDS011;23517;50.390;8.616;2024-01-27T00:13:22;10.23;;;1.85;;
37677;SDS011;23517;50.390;8.616;2024-01-27T00:15:49;11.43;;;1.67;;
37677;SDS011;23517;50.390;8.616;2024-01-27T00:18:16;11.63;;;2.38;;
37677;SDS011;23517;50.390;8.616;2024-01-27T00:20:43;11.57;;;1.80;;
37677;SDS011;23517;50.390;8.616;2024-01-27T00:23:09;10.38;;;1.95;;
37677;SDS011;23517;50.390;8.616;2024-01-27T00:25:36;16.70;;;2.25;;
37677;SDS011;23517;50.390;8.616;2024-01-27T00:28:03;9.73;;;2.05;;
37677;SDS011;23517;50.390;8.616;2024-01-27T00:30:30;6.88;;;2.03;;
37677;SDS011;23517;50.390;8.616;2024-01-27T00:32:57;9.85;;;2.25;;
37677;SDS011;23517;50.390;8.616;2024-01-27T00:35:24;14.82;;;2.30;;
37677;SDS011;23517;50.390;8.616;2024-01-27T00:37:56;13.90;;;2.40;;
37677;SDS011;23517;50.390;8.616;2024-01-27T00:40:23;9.70;;;2.60;;
37677;SDS011;23517;50.390;8.616;2024-01-27T00:42:50;9.10;;;1.95;;
37677;SDS011;23517;50.390;8.616;2024-01-27T00:45:16;7.25;;;2.15;;
37677;SDS011;23517;50.390;8.616;2024-01-27T00:47:43;9.48;;;2.33;;
37677;SDS011;23517;50.390;8.616;2024-01-27T00:50:10;7.82;;;1.90;;
37677;SDS011;23517;50.390;8.616;2024-01-27T00:52:37;7.18;;;1.88;;
37677;SDS011;23517;50.390;8.616;2024-01-27T00:55:04;6.50;;;1.88;;
37677;SDS011;23517;50.390;8.616;2024-01-27T00:57:31;13.25;;;2.22;;
37677;SDS011;23517;50.390;8.616;2024-01-27T00:59:58;9.70;;;1.98;;
37677;SDS011;23517;50.390;8.616;2024-01-27T01:02:25;13.98;;;3.70;;
37677;SDS011;23517;50.390;8.616;2024-01-27T01:04:51;10.30;;;1.98;;
37677;SDS011;23517;50.390;8.616;2024-01-27T01:07:18;4.32;;;1.50;;
37677;SDS011;23517;50.390;8.616;2024-01-27T01:09:45;12.07;;;2.80;;
37677;SDS011;23517;50.390;8.616;2024-01-27T01:12:12;6.47;;;1.90;;
37677;SDS011;23517;50.390;8.616;2024-01-27T01:14:38;9.10;;;1.75;;
37677;SDS011;23517;50.390;8.616;2024-01-27T01:17:05;9.77;;;1.77;;
37677;SDS011;23517;50.390;8.616;2024-01-27T01:19:32;9.02;;;1.60;;
37677;SDS011;23517;50.390;8.616;2024-01-27T01:21:59;8.85;;;2.33;;
37677;SDS011;23517;50.390;8.616;2024-01-27T01:24:25;9.20;;;1.65;;
37677;SDS011;23517;50.390;8.616;2024-01-27T01:26:52;7.88;;;1.65;;
37677;SDS011;23517;50.390;8.616;2024-01-27T01:29:19;10.65;;;1.73;;
37677;SDS011;23517;50.390;8.616;2024-01-27T01:31:45;8.88;;;2.95;;
37677;SDS011;23517;50.390;8.616;2024-01-27T01:34:12;7.45;;;1.40;;
37677;SDS011;23517;50.390;8.616;2024-01-27T01:36:39;8.25;;;1.55;;
37677;SDS011;23517;50.390;8.616;2024-01-27T01:39:06;9.07;;;2.00;;
37677;SDS011;23517;50.390;8.616;2024-01-27T01:41:33;13.60;;;2.13;;
37677;SDS011;23517;50.390;8.616;2024-01-27T01:44:00;11.30;;;2.00;;
37677;SDS011;23517;50.390;8.616;2024-01-27T01:46:26;12.75;;;1.95;;
37677;SDS011;23517;50.390;8.616;2024-01-27T01:48:53;10.88;;;2.15;;
37677;SDS011;23517;50.390;8.616;2024-01-27T01:51:21;8.25;;;1.95;;
37677;SDS011;23517;50.390;8.616;2024-01-27T01:53:51;12.27;;;2.10;;
37677;SDS011;23517;50.390;8.616;2024-01-27T01:56:24;9.13;;;1.80;;
37677;SDS011;23517;50.390;8.616;2024-01-27T01:58:53;5.80;;;1.55;;
37677;SDS011;23517;50.390;8.616;2024-01-27T02:01:20;7.43;;;1.65;;
37677;SDS011;23517;50.390;8.616;2024-01-27T02:03:54;10.35;;;1.80;;
37677;SDS011;23517;50.390;8.616;2024-01-27T02:06:22;9.40;;;1.48;;
37677;SDS011;23517;50.390;8.616;2024-01-27T02:08:50;11.57;;;1.90;;
37677;SDS011;23517;50.390;8.616;2024-01-27T02:11:17;12.80;;;1.90;;
37677;SDS011;23517;50.390;8.616;2024-01-27T02:13:44;11.80;;;1.80;;
37677;SDS011;23517;50.390;8.616;2024-01-27T02:16:10;10.38;;;1.95;;
37677;SDS011;23517;50.390;8.616;2024-01-27T02:18:37;6.70;;;1.65;;
37677;SDS011;23517;50.390;8.616;2024-01-27T02:21:04;10.50;;;1.83;;
37677;SDS011;23517;50.390;8.616;2024-01-27T02:23:31;3.55;;;1.35;;
37677;SDS011;23517;50.390;8.616;2024-01-27T02:25:58;12.25;;;1.95;;
37677;SDS011;23517;50.390;8.616;2024-01-27T02:28:25;8.85;;;1.65;;
37677;SDS011;23517;50.390;8.616;2024-01-27T02:30:51;7.65;;;1.85;;
37677;SDS011;23517;50.390;8.616;2024-01-27T02:33:18;7.63;;;1.83;;
37677;SDS011;23517;50.390;8.616;2024-01-27T02:35:45;6.03;;;1.85;;
37677;SDS011;23517;50.390;8.616;2024-01-27T02:38:14;8.55;;;1.70;;
37677;SDS011;23517;50.390;8.616;2024-01-27T02:40:41;12.00;;;2.42;;
37677;SDS011;23517;50.390;8.616;2024-01-27T02:43:08;4.68;;;1.58;;
37677;SDS011;23517;50.390;8.616;2024-01-27T02:45:34;8.65;;;1.75;;
37677;SDS011;23517;50.390;8.616;2024-01-27T02:48:01;8.85;;;2.05;;
37677;SDS011;23517;50.390;8.616;2024-01-27T02:50:28;6.88;;;1.95;;
37677;SDS011;23517;50.390;8.616;2024-01-27T02:52:55;9.85;;;1.95;;
37677;SDS011;23517;50.390;8.616;2024-01-27T02:55:22;6.93;;;1.58;;
37677;SDS011;23517;50.390;8.616;2024-01-27T02:57:48;8.18;;;2.00;;
37677;SDS011;23517;50.390;8.616;2024-01-27T03:00:16;10.98;;;2.17;;
37677;SDS011;23517;50.390;8.616;2024-01-27T03:02:43;11.23;;;1.90;;
37677;SDS011;23517;50.390;8.616;2024-01-27T03:05:10;8.70;;;1.70;;
37677;SDS011;23517;50.390;8.616;2024-01-27T03:07:40;10.82;;;2.00;;
37677;SDS011;23517;50.390;8.616;2024-01-27T03:10:07;8.90;;;1.60;;
37677;SDS011;23517;50.390;8.616;2024-01-27T03:12:34;12.23;;;2.10;;
37677;SDS011;23517;50.390;8.616;2024-01-27T03:15:10;9.65;;;1.88;;
37677;SDS011;23517;50.390;8.616;2024-01-27T03:17:37;8.40;;;2.10;;
37677;SDS011;23517;50.390;8.616;2024-01-27T03:20:04;9.93;;;2.28;;
37677;SDS011;23517;50.390;8.616;2024-01-27T03:22:34;13.23;;;2.15;;
37677;SDS011;23517;50.390;8.616;2024-01-27T03:25:01;9.20;;;2.28;;
37677;SDS011;23517;50.390;8.616;2024-01-27T03:27:27;9.75;;;2.45;;
37677;SDS011;23517;50.390;8.616;2024-01-27T03:29:55;6.97;;;2.22;;
37677;SDS011;23517;50.390;8.616;2024-01-27T03:32:26;9.05;;;2.13;;
37677;SDS011;23517;50.390;8.616;2024-01-27T03:34:52;9.05;;;1.98;;
37677;SDS011;23517;50.390;8.616;2024-01-27T03:37:21;11.25;;;2.20;;
37677;SDS011;23517;50.390;8.616;2024-01-27T03:39:48;10.18;;;1.80;;
37677;SDS011;23517;50.390;8.616;2024-01-27T03:42:15;14.50;;;2.47;;
37677;SDS011;23517;50.390;8.616;2024-01-27T03:44:42;9.80;;;1.88;;
37677;SDS011;23517;50.390;8.616;2024-01-27T03:47:10;11.57;;;2.28;;
37677;SDS011;23517;50.390;8.616;2024-01-27T03:49:37;8.80;;;2.33;;
37677;SDS011;23517;50.390;8.616;2024-01-27T03:52:04;9.48;;;2.10;;
37677;SDS011;23517;50.390;8.616;2024-01-27T03:54:31;13.70;;;2.05;;
37677;SDS011;23517;50.390;8.616;2024-01-27T03:56:58;16.98;;;2.55;;
37677;SDS011;23517;50.390;8.616;2024-01-27T03:59:24;12.63;;;2.35;;
37677;SDS011;23517;50.390;8.616;2024-01-27T04:01:51;13.65;;;1.88;;
37677;SDS011;23517;50.390;8.616;2024-01-27T04:04:18;13.30;;;2.35;;
37677;SDS011;23517;50.390;8.616;2024-01-27T04:06:44;10.00;;;2.03;;
37677;SDS011;23517;50.390;8.616;2024-01-27T04:09:11;9.05;;;2.00;;
37677;SDS011;23517;50.390;8.616;2024-01-27T04:11:38;11.27;;;1.90;;
37677;SDS011;23517;50.390;8.616;2024-01-27T04:14:06;8.05;;;1.70;;
37677;SDS011;23517;50.390;8.616;2024-01-27T04:16:32;11.98;;;1.90;;
37677;SDS011;23517;50.390;8.616;2024-01-27T04:18:59;11.98;;;2.08;;
37677;SDS011;23517;50.390;8.616;2024-01-27T04:21:26;10.02;;;1.75;;
37677;SDS011;23517;50.390;8.616;2024-01-27T04:23:53;15.27;;;2.25;;
37677;SDS011;23517;50.390;8.616;2024-01-27T04:26:20;12.00;;;2.20;;
37677;SDS011;23517;50.390;8.616;2024-01-27T04:28:46;14.90;;;2.75;;
37677;SDS011;23517;50.390;8.616;2024-01-27T04:31:13;6.85;;;1.75;;
37677;SDS011;23517;50.390;8.616;2024-01-27T04:33:40;14.55;;;2.20;;
37677;SDS011;23517;50.390;8.616;2024-01-27T04:36:08;6.25;;;1.80;;
37677;SDS011;23517;50.390;8.616;2024-01-27T04:38:35;10.20;;;2.08;;
37677;SDS011;23517;50.390;8.616;2024-01-27T04:41:02;10.55;;;1.90;;
37677;SDS011;23517;50.390;8.616;2024-01-27T04:43:29;11.05;;;1.80;;
37677;SDS011;23517;50.390;8.616;2024-01-27T04:45:56;5.60;;;1.83;;
37677;SDS011;23517;50.390;8.616;2024-01-27T04:48:23;9.77;;;1.83;;
37677;SDS011;23517;50.390;8.616;2024-01-27T04:50:50;11.65;;;2.28;;
37677;SDS011;23517;50.390;8.616;2024-01-27T04:53:17;8.98;;;1.60;;
37677;SDS011;23517;50.390;8.616;2024-01-27T04:55:43;8.45;;;1.75;;
37677;SDS011;23517;50.390;8.616;2024-01-27T04:58:10;7.32;;;1.80;;
37677;SDS011;23517;50.390;8.616;2024-01-27T05:00:37;6.75;;;2.28;;
37677;SDS011;23517;50.390;8.616;2024-01-27T05:03:03;10.00;;;1.85;;
37677;SDS011;23517;50.390;8.616;2024-01-27T05:05:33;9.35;;;1.77;;
37677;SDS011;23517;50.390;8.616;2024-01-27T05:08:02;6.57;;;2.08;;
37677;SDS011;23517;50.390;8.616;2024-01-27T05:10:29;9.90;;;1.88;;
37677;SDS011;23517;50.390;8.616;2024-01-27T05:12:56;12.88;;;2.05;;
37677;SDS011;23517;50.390;8.616;2024-01-27T05:15:23;11.98;;;2.03;;
37677;SDS011;23517;50.390;8.616;2024-01-27T05:17:49;14.68;;;2.42;;
37677;SDS011;23517;50.390;8.616;2024-01-27T05:20:17;10.73;;;2.28;;
37677;SDS011;23517;50.390;8.616;2024-01-27T05:22:45;7.22;;;1.45;;
37677;SDS011;23517;50.390;8.616;2024-01-27T05:25:12;14.45;;;2.28;;
37677;SDS011;23517;50.390;8.616;2024-01-27T05:27:38;9.93;;;1.80;;
37677;SDS011;23517;50.390;8.616;2024-01-27T05:30:06;5.93;;;1.90;;
37677;SDS011;23517;50.390;8.616;2024-01-27T05:32:33;13.65;;;2.30;;
37677;SDS011;23517;50.390;8.616;2024-01-27T05:35:00;11.02;;;2.20;;
37677;SDS011;23517;50.390;8.616;2024-01-27T05:37:27;9.52;;;2.33;;
37677;SDS011;23517;50.390;8.616;2024-01-27T05:39:53;15.10;;;2.60;;
37677;SDS011;23517;50.390;8.616;2024-01-27T05:42:21;8.52;;;2.20;;
37677;SDS011;23517;50.390;8.616;2024-01-27T05:44:48;9.32;;;1.90;;
37677;SDS011;23517;50.390;8.616;2024-01-27T05:47:15;7.65;;;1.75;;
37677;SDS011;23517;50.390;8.616;2024-01-27T05:49:41;10.00;;;1.98;;
37677;SDS011;23517;50.390;8.616;2024-01-27T05:52:08;7.30;;;1.70;;
37677;SDS011;23517;50.390;8.616;2024-01-27T05:54:35;11.82;;;2.08;;
37677;SDS011;23517;50.390;8.616;2024-01-27T05:57:02;11.65;;;2.20;;
37677;SDS011;23517;50.390;8.616;2024-01-27T05:59:29;6.43;;;1.58;;
37677;SDS011;23517;50.390;8.616;2024-01-27T06:01:56;12.18;;;2.45;;
37677;SDS011;23517;50.390;8.616;2024-01-27T06:04:24;13.27;;;1.88;;
37677;SDS011;23517;50.390;8.616;2024-01-27T06:06:50;12.75;;;2.38;;
37677;SDS011;23517;50.390;8.616;2024-01-27T06:09:17;9.15;;;2.30;;
37677;SDS011;23517;50.390;8.616;2024-01-27T06:11:44;15.55;;;2.50;;
37677;SDS011;23517;50.390;8.616;2024-01-27T06:14:11;9.82;;;2.20;;
37677;SDS011;23517;50.390;8.616;2024-01-27T06:16:37;16.33;;;2.50;;
37677;SDS011;23517;50.390;8.616;2024-01-27T06:19:04;10.93;;;2.72;;
37677;SDS011;23517;50.390;8.616;2024-01-27T06:21:31;11.45;;;2.25;;
37677;SDS011;23517;50.390;8.616;2024-01-27T06:23:57;10.05;;;2.15;;
37677;SDS011;23517;50.390;8.616;2024-01-27T06:26:24;6.75;;;1.60;;
37677;SDS011;23517;50.390;8.616;2024-01-27T06:28:51;10.88;;;2.10;;
37677;SDS011;23517;50.390;8.616;2024-01-27T06:31:18;15.55;;;2.10;;
37677;SDS011;23517;50.390;8.616;2024-01-27T06:33:44;13.95;;;1.98;;
37677;SDS011;23517;50.390;8.616;2024-01-27T06:36:11;12.70;;;1.90;;
37677;SDS011;23517;50.390;8.616;2024-01-27T06:38:38;16.17;;;2.03;;
37677;SDS011;23517;50.390;8.616;2024-01-27T06:41:05;11.52;;;2.70;;
37677;SDS011;23517;50.390;8.616;2024-01-27T06:43:31;7.78;;;1.95;;
37677;SDS011;23517;50.390;8.616;2024-01-27T06:45:58;8.50;;;2.53;;
37677;SDS011;23517;50.390;8.616;2024-01-27T06:48:25;18.52;;;6.65;;
37677;SDS011;23517;50.390;8.616;2024-01-27T06:50:52;30.90;;;14.25;;
37677;SDS011;23517;50.390;8.616;2024-01-27T06:53:19;15.90;;;5.75;;
37677;SDS011;23517;50.390;8.616;2024-01-27T06:55:46;12.93;;;5.30;;
37677;SDS011;23517;50.390;8.616;2024-01-27T06:58:13;18.27;;;7.85;;
37677;SDS011;23517;50.390;8.616;2024-01-27T07:00:39;14.38;;;5.13;;
37677;SDS011;23517;50.390;8.616;2024-01-27T07:03:07;18.73;;;8.60;;
37677;SDS011;23517;50.390;8.616;2024-01-27T07:05:38;14.25;;;6.38;;
37677;SDS011;23517;50.390;8.616;2024-01-27T07:08:07;51.03;;;28.63;;
37677;SDS011;23517;50.390;8.616;2024-01-27T07:10:34;45.75;;;19.52;;
37677;SDS011;23517;50.390;8.616;2024-01-27T07:13:01;48.10;;;18.50;;
37677;SDS011;23517;50.390;8.616;2024-01-27T07:15:28;40.53;;;16.13;;
37677;SDS011;23517;50.390;8.616;2024-01-27T07:17:55;12.30;;;5.30;;
37677;SDS011;23517;50.390;8.616;2024-01-27T07:20:22;18.27;;;3.38;;
37677;SDS011;23517;50.390;8.616;2024-01-27T07:22:50;14.13;;;2.80;;
37677;SDS011;23517;50.390;8.616;2024-01-27T07:25:17;12.05;;;2.35;;
37677;SDS011;23517;50.390;8.616;2024-01-27T07:27:46;12.18;;;3.35;;
37677;SDS011;23517;50.390;8.616;2024-01-27T07:30:14;9.35;;;2.30;;
37677;SDS011;23517;50.390;8.616;2024-01-27T07:32:41;11.55;;;2.60;;
37677;SDS011;23517;50.390;8.616;2024-01-27T07:35:10;13.15;;;2.15;;
37677;SDS011;23517;50.390;8.616;2024-01-27T07:37:37;8.68;;;2.00;;
37677;SDS011;23517;50.390;8.616;2024-01-27T07:40:04;13.63;;;2.40;;
37677;SDS011;23517;50.390;8.616;2024-01-27T07:42:31;12.27;;;1.80;;
37677;SDS011;23517;50.390;8.616;2024-01-27T07:44:59;10.85;;;2.28;;
37677;SDS011;23517;50.390;8.616;2024-01-27T07:47:25;8.48;;;2.10;;
37677;SDS011;23517;50.390;8.616;2024-01-27T07:49:54;15.57;;;5.82;;
37677;SDS011;23517;50.390;8.616;2024-01-27T07:52:21;29.58;;;12.73;;
37677;SDS011;23517;50.390;8.616;2024-01-27T07:54:47;20.65;;;5.18;;
37677;SDS011;23517;50.390;8.616;2024-01-27T07:57:15;22.98;;;6.75;;
37677;SDS011;23517;50.390;8.616;2024-01-27T07:59:41;25.85;;;8.70;;
37677;SDS011;23517;50.390;8.616;2024-01-27T08:02:08;18.50;;;5.47;;
37677;SDS011;23517;50.390;8.616;2024-01-27T08:04:35;16.50;;;4.95;;
37677;SDS011;23517;50.390;8.616;2024-01-27T08:07:01;15.23;;;4.63;;
37677;SDS011;23517;50.390;8.616;2024-01-27T08:09:36;8.98;;;3.22;;
37677;SDS011;23517;50.390;8.616;2024-01-27T08:12:04;10.80;;;2.88;;
37677;SDS011;23517;50.390;8.616;2024-01-27T08:14:31;10.15;;;2.67;;
37677;SDS011;23517;50.390;8.616;2024-01-27T08:16:59;12.38;;;2.30;;
37677;SDS011;23517;50.390;8.616;2024-01-27T08:19:26;8.30;;;2.15;;
37677;SDS011;23517;50.390;8.616;2024-01-27T08:21:53;11.15;;;2.15;;
37677;SDS011;23517;50.390;8.616;2024-01-27T08:24:20;11.02;;;2.40;;
37677;SDS011;23517;50.390;8.616;2024-01-27T08:26:48;8.75;;;1.80;;
37677;SDS011;23517;50.390;8.616;2024-01-27T08:29:15;10.20;;;2.97;;
37677;SDS011;23517;50.390;8.616;2024-01-27T08:31:42;8.65;;;2.10;;
37677;SDS011;23517;50.390;8.616;2024-01-27T08:34:09;10.68;;;1.88;;
37677;SDS011;23517;50.390;8.616;2024-01-27T08:36:38;11.25;;;2.20;;
37677;SDS011;23517;50.390;8.616;2024-01-27T08:39:06;9.48;;;2.33;;
37677;SDS011;23517;50.390;8.616;2024-01-27T08:41:36;12.07;;;2.67;;
37677;SDS011;23517;50.390;8.616;2024-01-27T08:44:02;15.05;;;2.75;;
37677;SDS011;23517;50.390;8.616;2024-01-27T08:46:29;9.73;;;2.10;;
37677;SDS011;23517;50.390;8.616;2024-01-27T08:48:56;9.50;;;1.92;;
37677;SDS011;23517;50.390;8.616;2024-01-27T08:51:23;12.00;;;2.17;;
37677;SDS011;23517;50.390;8.616;2024-01-27T08:53:50;17.25;;;2.38;;
37677;SDS011;23517;50.390;8.616;2024-01-27T08:56:17;7.00;;;2.17;;
37677;SDS011;23517;50.390;8.616;2024-01-27T08:58:44;14.65;;;2.13;;
37677;SDS011;23517;50.390;8.616;2024-01-27T09:01:11;10.30;;;2.13;;
37677;SDS011;23517;50.390;8.616;2024-01-27T09:03:41;15.63;;;2.03;;
37677;SDS011;23517;50.390;8.616;2024-01-27T09:06:08;11.95;;;2.40;;
37677;SDS011;23517;50.390;8.616;2024-01-27T09:08:35;16.05;;;4.68;;
37677;SDS011;23517;50.390;8.616;2024-01-27T09:11:02;17.30;;;3.35;;
37677;SDS011;23517;50.390;8.616;2024-01-27T09:13:29;14.77;;;3.50;;
37677;SDS011;23517;50.390;8.616;2024-01-27T09:15:57;15.00;;;3.58;;
37677;SDS011;23517;50.390;8.616;2024-01-27T09:18:26;14.13;;;2.90;;
37677;SDS011;23517;50.390;8.616;2024-01-27T09:20:54;9.90;;;2.63;;
37677;SDS011;23517;50.390;8.616;2024-01-27T09:23:21;10.00;;;2.50;;
37677;SDS011;23517;50.390;8.616;2024-01-27T09:25:49;10.38;;;2.53;;
37677;SDS011;23517;50.390;8.616;2024-01-27T09:28:16;13.75;;;3.05;;
37677;SDS011;23517;50.390;8.616;2024-01-27T09:30:43;12.13;;;2.65;;
37677;SDS011;23517;50.390;8.616;2024-01-27T09:33:10;14.23;;;2.90;;
37677;SDS011;23517;50.390;8.616;2024-01-27T09:35:38;11.80;;;2.90;;
37677;SDS011;23517;50.390;8.616;2024-01-27T09:38:05;17.30;;;2.72;;
37677;SDS011;23517;50.390;8.616;2024-01-27T09:40:35;10.45;;;2.40;;
37677;SDS011;23517;50.390;8.616;2024-01-27T09:43:02;12.88;;;2.47;;
37677;SDS011;23517;50.390;8.616;2024-01-27T09:45:29;11.93;;;2.75;;
37677;SDS011;23517;50.390;8.616;2024-01-27T09:47:56;12.25;;;2.97;;
37677;SDS011;23517;50.390;8.616;2024-01-27T09:50:26;9.48;;;3.28;;
37677;SDS011;23517;50.390;8.616;2024-01-27T09:52:54;11.63;;;2.90;;
37677;SDS011;23517;50.390;8.616;2024-01-27T09:55:20;13.23;;;3.55;;
37677;SDS011;23517;50.390;8.616;2024-01-27T09:57:47;14.27;;;3.30;;
37677;SDS011;23517;50.390;8.616;2024-01-27T10:00:14;12.35;;;2.92;;
37677;SDS011;23517;50.390;8.616;2024-01-27T10:02:45;13.82;;;3.40;;
37677;SDS011;23517;50.390;8.616;2024-01-27T10:05:15;11.02;;;3.30;;
37677;SDS011;23517;50.390;8.616;2024-01-27T10:07:43;15.50;;;3.58;;
37677;SDS011;23517;50.390;8.616;2024-01-27T10:10:10;10.05;;;3.33;;
37677;SDS011;23517;50.390;8.616;2024-01-27T10:12:40;13.70;;;3.38;;
37677;SDS011;23517;50.390;8.616;2024-01-27T10:15:18;14.73;;;3.63;;
37677;SDS011;23517;50.390;8.616;2024-01-27T10:17:49;17.60;;;3.92;;
37677;SDS011;23517;50.390;8.616;2024-01-27T10:20:16;11.45;;;3.15;;
37677;SDS011;23517;50.390;8.616;2024-01-27T10:22:45;12.75;;;3.10;;
37677;SDS011;23517;50.390;8.616;2024-01-27T10:25:12;16.38;;;3.55;;
37677;SDS011;23517;50.390;8.616;2024-01-27T10:27:39;15.73;;;3.97;;
37677;SDS011;23517;50.390;8.616;2024-01-27T10:30:14;12.45;;;4.32;;
37677;SDS011;23517;50.390;8.616;2024-01-27T10:32:55;18.88;;;5.97;;
37677;SDS011;23517;50.390;8.616;2024-01-27T10:35:26;21.08;;;5.93;;
37677;SDS011;23517;50.390;8.616;2024-01-27T10:37:54;22.85;;;6.60;;
37677;SDS011;23517;50.390;8.616;2024-01-27T10:40:25;22.10;;;6.30;;
37677;SDS011;23517;50.390;8.616;2024-01-27T10:43:00;15.48;;;4.53;;
37677;SDS011;23517;50.390;8.616;2024-01-27T10:45:36;21.25;;;5.25;;
37677;SDS011;23517;50.390;8.616;2024-01-27T10:48:05;15.23;;;5.65;;
37677;SDS011;23517;50.390;8.616;2024-01-27T10:50:36;20.95;;;5.82;;
37677;SDS011;23517;50.390;8.616;2024-01-27T10:53:19;14.45;;;3.78;;
37677;SDS011;23517;50.390;8.616;2024-01-27T10:55:57;21.73;;;5.70;;
37677;SDS011;23517;50.390;8.616;2024-01-27T10:58:25;16.58;;;4.30;;
37677;SDS011;23517;50.390;8.616;2024-01-27T11:00:54;14.65;;;4.90;;
37677;SDS011;23517;50.390;8.616;2024-01-27T11:03:22;21.50;;;5.30;;
37677;SDS011;23517;50.390;8.616;2024-01-27T11:05:51;23.20;;;5.65;;
37677;SDS011;23517;50.390;8.616;2024-01-27T11:08:20;16.58;;;6.55;;
37677;SDS011;23517;50.390;8.616;2024-01-27T11:10:53;18.55;;;5.00;;
37677;SDS011;23517;50.390;8.616;2024-01-27T11:13:20;17.92;;;3.88;;
37677;SDS011;23517;50.390;8.616;2024-01-27T11:15:54;14.70;;;3.70;;
37677;SDS011;23517;50.390;8.616;2024-01-27T11:18:21;18.02;;;3.83;;
37677;SDS011;23517;50.390;8.616;2024-01-27T11:20:48;15.00;;;3.22;;
37677;SDS011;23517;50.390;8.616;2024-01-27T11:23:15;15.00;;;3.78;;
37677;SDS011;23517;50.390;8.616;2024-01-27T11:25:41;11.10;;;3.25;;
37677;SDS011;23517;50.390;8.616;2024-01-27T11:28:12;17.98;;;4.30;;
37677;SDS011;23517;50.390;8.616;2024-01-27T11:30:49;16.27;;;5.20;;
37677;SDS011;23517;50.390;8.616;2024-01-27T11:33:16;14.77;;;3.78;;
37677;SDS011;23517;50.390;8.616;2024-01-27T11:35:43;15.52;;;4.10;;
37677;SDS011;23517;50.390;8.616;2024-01-27T11:38:10;13.15;;;4.40;;
37677;SDS011;23517;50.390;8.616;2024-01-27T11:40:46;18.48;;;4.68;;
37677;SDS011;23517;50.390;8.616;2024-01-27T11:43:13;16.60;;;4.57;;
37677;SDS011;23517;50.390;8.616;2024-01-27T11:45:40;12.95;;;4.00;;
37677;SDS011;23517;50.390;8.616;2024-01-27T11:48:07;18.15;;;4.65;;
37677;SDS011;23517;50.390;8.616;2024-01-27T11:50:34;16.35;;;4.30;;
37677;SDS011;23517;50.390;8.616;2024-01-27T11:53:00;14.98;;;4.55;;
37677;SDS011;23517;50.390;8.616;2024-01-27T11:55:27;16.90;;;3.92;;
37677;SDS011;23517;50.390;8.616;2024-01-27T11:57:54;14.75;;;4.50;;
37677;SDS011;23517;50.390;8.616;2024-01-27T12:00:20;16.05;;;4.90;;
37677;SDS011;23517;50.390;8.616;2024-01-27T12:02:50;16.48;;;4.10;;
37677;SDS011;23517;50.390;8.616;2024-01-27T12:05:18;13.70;;;3.78;;
37677;SDS011;23517;50.390;8.616;2024-01-27T12:07:45;14.55;;;4.25;;
37677;SDS011;23517;50.390;8.616;2024-01-27T12:10:11;17.00;;;4.45;;
37677;SDS011;23517;50.390;8.616;2024-01-27T12:12:38;17.25;;;5.30;;
37677;SDS011;23517;50.390;8.616;2024-01-27T12:15:05;14.70;;;4.38;;
37677;SDS011;23517;50.390;8.616;2024-01-27T12:17:32;19.65;;;4.78;;
37677;SDS011;23517;50.390;8.616;2024-01-27T12:20:00;17.58;;;4.93;;
37677;SDS011;23517;50.390;8.616;2024-01-27T12:22:28;15.93;;;4.70;;
37677;SDS011;23517;50.390;8.616;2024-01-27T12:24:56;12.43;;;4.30;;
37677;SDS011;23517;50.390;8.616;2024-01-27T12:27:41;17.95;;;4.30;;
37677;SDS011;23517;50.390;8.616;2024-01-27T12:30:09;18.95;;;4.82;;
37677;SDS011;23517;50.390;8.616;2024-01-27T12:32:37;14.73;;;4.30;;
37677;SDS011;23517;50.390;8.616;2024-01-27T12:35:05;13.70;;;4.47;;
37677;SDS011;23517;50.390;8.616;2024-01-27T12:37:33;18.08;;;4.55;;
37677;SDS011;23517;50.390;8.616;2024-01-27T12:40:20;18.13;;;5.15;;
37677;SDS011;23517;50.390;8.616;2024-01-27T12:42:50;14.57;;;4.20;;
37677;SDS011;23517;50.390;8.616;2024-01-27T12:45:17;15.13;;;4.25;;
37677;SDS011;23517;50.390;8.616;2024-01-27T12:47:44;15.80;;;4.03;;
37677;SDS011;23517;50.390;8.616;2024-01-27T12:50:11;14.13;;;4.15;;
37677;SDS011;23517;50.390;8.616;2024-01-27T12:52:38;20.67;;;3.72;;
37677;SDS011;23517;50.390;8.616;2024-01-27T12:55:05;16.13;;;3.70;;
37677;SDS011;23517;50.390;8.616;2024-01-27T12:57:32;18.88;;;4.28;;
37677;SDS011;23517;50.390;8.616;2024-01-27T12:59:59;14.90;;;3.95;;
37677;SDS011;23517;50.390;8.616;2024-01-27T13:02:26;16.25;;;4.05;;
37677;SDS011;23517;50.390;8.616;2024-01-27T13:04:53;19.33;;;4.15;;
37677;SDS011;23517;50.390;8.616;2024-01-27T13:07:20;19.67;;;4.30;;
37677;SDS011;23517;50.390;8.616;2024-01-27T13:09:46;15.73;;;3.88;;
37677;SDS011;23517;50.390;8.616;2024-01-27T13:12:13;14.73;;;3.72;;
37677;SDS011;23517;50.390;8.616;2024-01-27T13:14:40;15.80;;;3.65;;
37677;SDS011;23517;50.390;8.616;2024-01-27T13:17:08;14.77;;;3.83;;
37677;SDS011;23517;50.390;8.616;2024-01-27T13:19:34;14.35;;;3.55;;
37677;SDS011;23517;50.390;8.616;2024-01-27T13:22:01;16.77;;;3.28;;
37677;SDS011;23517;50.390;8.616;2024-01-27T13:24:29;15.25;;;4.45;;
37677;SDS011;23517;50.390;8.616;2024-01-27T13:26:59;11.40;;;3.60;;
37677;SDS011;23517;50.390;8.616;2024-01-27T13:29:26;11.73;;;3.85;;
37677;SDS011;23517;50.390;8.616;2024-01-27T13:31:53;15.45;;;4.53;;
37677;SDS011;23517;50.390;8.616;2024-01-27T13:34:20;14.00;;;3.90;;
37677;SDS011;23517;50.390;8.616;2024-01-27T13:36:47;18.52;;;5.25;;
37677;SDS011;23517;50.390;8.616;2024-01-27T13:39:13;15.68;;;4.65;;
37677;SDS011;23517;50.390;8.616;2024-01-27T13:41:40;14.50;;;4.50;;
37677;SDS011;23517;50.390;8.616;2024-01-27T13:44:07;19.98;;;4.13;;
37677;SDS011;23517;50.390;8.616;2024-01-27T13:46:34;14.93;;;4.32;;
37677;SDS011;23517;50.390;8.616;2024-01-27T13:49:00;12.90;;;4.32;;
37677;SDS011;23517;50.390;8.616;2024-01-27T13:51:27;16.58;;;4.05;;
37677;SDS011;23517;50.390;8.616;2024-01-27T13:53:54;12.35;;;3.47;;
37677;SDS011;23517;50.390;8.616;2024-01-27T13:56:21;9.82;;;3.20;;
37677;SDS011;23517;50.390;8.616;2024-01-27T13:58:47;13.30;;;3.75;;
37677;SDS011;23517;50.390;8.616;2024-01-27T14:01:14;17.00;;;3.70;;
37677;SDS011;23517;50.390;8.616;2024-01-27T14:03:42;13.20;;;3.78;;
37677;SDS011;23517;50.390;8.616;2024-01-27T14:06:08;13.05;;;3.50;;
37677;SDS011;23517;50.390;8.616;2024-01-27T14:08:39;10.77;;;3.22;;
37677;SDS011;23517;50.390;8.616;2024-01-27T14:11:06;13.15;;;3.60;;
37677;SDS011;23517;50.390;8.616;2024-01-27T14:13:33;14.30;;;3.80;;
37677;SDS011;23517;50.390;8.616;2024-01-27T14:16:00;12.35;;;3.28;;
37677;SDS011;23517;50.390;8.616;2024-01-27T14:18:27;13.27;;;3.58;;
37677;SDS011;23517;50.390;8.616;2024-01-27T14:20:54;16.77;;;3.85;;
37677;SDS011;23517;50.390;8.616;2024-01-27T14:23:21;15.20;;;3.80;;
37677;SDS011;23517;50.390;8.616;2024-01-27T14:25:48;14.60;;;3.78;;
37677;SDS011;23517;50.390;8.616;2024-01-27T14:28:14;13.88;;;4.07;;
37677;SDS011;23517;50.390;8.616;2024-01-27T14:30:43;15.30;;;3.20;;
37677;SDS011;23517;50.390;8.616;2024-01-27T14:33:11;13.65;;;3.42;;
37677;SDS011;23517;50.390;8.616;2024-01-27T14:35:39;16.25;;;3.00;;
37677;SDS011;23517;50.390;8.616;2024-01-27T14:38:06;12.10;;;2.72;;
37677;SDS011;23517;50.390;8.616;2024-01-27T14:40:34;12.82;;;3.30;;